Time;durP1;ratioP1;P1;durP2;ratioP2;P2;SDS_P1;SDS_P2;PMS_P1;PMS_P2;Temp;Humidity;BMP_temperature;BMP_pressure;BME280_temperature;BME280_humidity;BME280_pressure;Samples;Min_cycle;Max_cycle;Signal;HPM_P1;HPM_P2
2021/04/26 00:01:42;;;;;;;4.17;2.83;;;11.00;87.00;;;;;;5092640;28;20191;-71
2021/04/26 00:04:08;;;;;;;4.57;3.00;;;10.90;86.50;;;;;;5092787;28;20180;-72
2021/04/26 00:06:34;;;;;;;4.07;2.87;;;10.90;87.60;;;;;;5092712;28;20211;-72
2021/04/26 00:09:00;;;;;;;5.47;3.03;;;10.90;88.90;;;;;;5092821;28;20573;-71
2021/04/26 00:11:25;;;;;;;3.30;3.00;;;11.00;87.10;;;;;;5092631;28;20200;-71
2021/04/26 00:13:51;;;;;;;3.30;2.80;;;10.90;87.00;;;;;;5074549;28;20183;-71
2021/04/26 00:16:17;;;;;;;5.67;3.20;;;10.80;88.20;;;;;;5092575;28;20176;-71
2021/04/26 00:18:42;;;;;;;4.00;3.00;;;10.80;88.20;;;;;;5074514;28;20654;-71
2021/04/26 00:21:08;;;;;;;3.97;2.40;;;10.80;87.80;;;;;;5092416;28;20204;-71
2021/04/26 00:23:34;;;;;;;5.40;2.80;;;10.80;88.50;;;;;;5092208;28;20526;-71
2021/04/26 00:26:00;;;;;;;3.60;3.00;;;10.80;88.10;;;;;;5092454;28;20184;-71
2021/04/26 00:28:26;;;;;;;3.53;2.73;;;10.80;88.50;;;;;;5074956;28;20188;-71
2021/04/26 00:30:52;;;;;;;4.90;3.20;;;10.70;88.10;;;;;;5092370;28;20192;-71
2021/04/26 00:33:18;;;;;;;3.50;3.07;;;10.70;88.20;;;;;;5090644;28;20204;-71
2021/04/26 00:35:44;;;;;;;3.87;2.70;;;10.70;89.40;;;;;;5090303;28;20168;-71
2021/04/26 00:38:10;;;;;;;3.37;3.03;;;10.60;90.00;;;;;;5092688;28;20183;-72
2021/04/26 00:40:36;;;;;;;3.97;2.93;;;10.70;88.40;;;;;;5092085;28;20206;-72
2021/04/26 00:43:01;;;;;;;4.50;3.17;;;10.60;89.60;;;;;;5092358;28;20534;-71
2021/04/26 00:45:28;;;;;;;3.47;2.83;;;10.60;90.20;;;;;;5092241;28;20176;-71
2021/04/26 00:47:54;;;;;;;5.30;3.30;;;10.50;89.40;;;;;;5092128;28;20519;-71
2021/04/26 00:50:24;;;;;;;6.77;3.10;;;10.40;89.80;;;;;;5092292;28;20311;-71
2021/04/26 00:52:50;;;;;;;3.37;2.93;;;10.30;90.00;;;;;;5092052;28;20209;-71
2021/04/26 00:55:19;;;;;;;3.17;2.50;;;10.30;90.00;;;;;;5074059;28;20176;-71
2021/04/26 00:57:44;;;;;;;4.10;2.83;;;10.30;90.40;;;;;;5092228;28;20228;-71
2021/04/26 01:00:11;;;;;;;5.00;3.10;;;10.20;90.10;;;;;;5091742;28;20192;-71
2021/04/26 01:02:38;;;;;;;5.27;2.80;;;10.20;90.20;;;;;;5092238;28;20171;-71
2021/04/26 01:05:08;;;;;;;4.03;3.20;;;10.00;90.30;;;;;;5092120;28;20665;-71
2021/04/26 01:07:35;;;;;;;3.10;2.80;;;10.10;91.00;;;;;;5092131;28;20174;-71
2021/04/26 01:10:06;;;;;;;4.83;2.73;;;10.10;90.80;;;;;;5091987;28;20248;-71
2021/04/26 01:12:41;;;;;;;4.33;2.70;;;10.20;91.00;;;;;;5092364;28;20253;-71
2021/04/26 01:15:15;;;;;;;5.80;2.53;;;10.20;90.70;;;;;;5091945;28;20163;-71
2021/04/26 01:17:51;;;;;;;5.33;2.77;;;10.20;90.50;;;;;;5092048;28;20224;-72
2021/04/26 01:20:33;;;;;;;4.93;3.13;;;10.20;90.70;;;;;;5073653;28;20219;-72
2021/04/26 01:23:04;;;;;;;4.73;2.70;;;10.30;91.40;;;;;;5092078;28;20215;-71
2021/04/26 01:25:34;;;;;;;4.70;3.10;;;10.30;90.60;;;;;;5092206;28;20187;-71
2021/04/26 01:28:08;;;;;;;2.97;2.63;;;10.30;91.10;;;;;;5088592;28;20186;-71
2021/04/26 01:30:56;;;;;;;3.33;2.77;;;10.20;91.30;;;;;;5088975;28;20193;-71
2021/04/26 01:33:24;;;;;;;5.03;2.80;;;10.10;90.50;;;;;;5075069;28;20211;-71
2021/04/26 01:35:54;;;;;;;3.40;2.40;;;10.10;91.40;;;;;;5090969;28;20180;-71
2021/04/26 01:38:31;;;;;;;5.63;3.07;;;10.10;91.00;;;;;;5093526;28;20179;-72
2021/04/26 01:40:58;;;;;;;6.50;2.80;;;10.10;90.90;;;;;;5094468;28;20272;-71
2021/04/26 01:43:26;;;;;;;8.13;2.93;;;10.00;91.40;;;;;;5095146;28;20275;-72
2021/04/26 01:45:55;;;;;;;4.40;2.73;;;10.00;90.90;;;;;;5095006;28;20535;-71
2021/04/26 01:48:22;;;;;;;3.17;2.67;;;9.80;91.00;;;;;;5094408;28;20255;-71
2021/04/26 01:50:50;;;;;;;5.87;2.63;;;9.80;91.20;;;;;;5094954;28;20203;-71
2021/04/26 01:53:17;;;;;;;6.60;2.57;;;9.80;91.10;;;;;;5094778;28;20205;-71
2021/04/26 01:55:46;;;;;;;5.83;3.07;;;9.70;91.20;;;;;;5094963;28;20173;-71
2021/04/26 01:58:13;;;;;;;3.00;2.40;;;9.70;91.40;;;;;;5094779;28;20175;-71
2021/04/26 02:00:39;;;;;;;5.53;2.70;;;9.70;91.50;;;;;;5095266;28;20203;-71
2021/04/26 02:03:07;;;;;;;3.83;3.20;;;9.60;91.50;;;;;;5094575;28;20236;-71
2021/04/26 02:05:34;;;;;;;4.77;3.00;;;9.40;91.60;;;;;;5094374;28;20187;-71
2021/04/26 02:08:01;;;;;;;6.40;2.47;;;9.40;91.90;;;;;;5094945;28;20202;-71
2021/04/26 02:10:28;;;;;;;3.47;3.00;;;9.40;91.90;;;;;;5094490;28;20677;-71
2021/04/26 02:12:56;;;;;;;2.53;2.23;;;9.40;91.70;;;;;;5076487;28;20210;-71
2021/04/26 02:15:25;;;;;;;5.97;2.67;;;9.50;91.80;;;;;;5094674;28;20178;-71
2021/04/26 02:17:51;;;;;;;4.30;3.17;;;9.50;91.80;;;;;;5094456;28;20187;-72
2021/04/26 02:22:51;;;;;;;4.13;2.77;;;9.50;92.40;;;;;;5110247;22;20245;-71
2021/04/26 02:25:17;;;;;;;7.17;2.60;;;9.50;92.00;;;;;;5094222;28;20162;-71
2021/04/26 02:27:44;;;;;;;2.90;2.27;;;9.40;92.10;;;;;;5094608;28;20179;-71
2021/04/26 02:30:10;;;;;;;5.10;2.40;;;9.40;92.50;;;;;;5091771;28;20652;-71
2021/04/26 02:32:42;;;;;;;2.97;1.93;;;9.40;92.40;;;;;;5094115;28;20234;-71
2021/04/26 02:35:11;;;;;;;3.37;2.83;;;9.30;92.30;;;;;;5094461;28;20626;-71
2021/04/26 02:37:50;;;;;;;3.97;2.40;;;9.30;92.30;;;;;;5094434;28;20246;-71
2021/04/26 02:40:17;;;;;;;4.03;2.70;;;9.20;92.40;;;;;;5094248;28;20167;-72
2021/04/26 02:42:46;;;;;;;4.30;2.77;;;9.20;92.50;;;;;;5094078;28;20665;-71
2021/04/26 02:45:19;;;;;;;5.97;2.67;;;9.20;92.50;;;;;;5094427;28;20179;-71
2021/04/26 02:47:45;;;;;;;4.53;2.53;;;9.20;92.70;;;;;;5094125;28;20174;-71
2021/04/26 02:50:18;;;;;;;4.20;2.10;;;9.20;92.70;;;;;;5094448;28;20228;-71
2021/04/26 02:52:50;;;;;;;4.87;2.50;;;9.20;92.90;;;;;;5093961;28;20196;-71
2021/04/26 02:55:17;;;;;;;5.20;2.47;;;9.20;92.80;;;;;;5092868;28;20219;-71
2021/04/26 02:57:44;;;;;;;4.83;2.07;;;9.20;93.50;;;;;;5094184;28;20216;-73
2021/04/26 03:00:14;;;;;;;4.37;2.30;;;9.30;92.80;;;;;;5093813;28;20178;-71
2021/04/26 03:02:42;;;;;;;3.33;3.03;;;9.10;93.00;;;;;;5094159;28;20194;-72
2021/04/26 03:05:10;;;;;;;2.77;2.10;;;9.10;93.00;;;;;;5093830;28;20184;-71
2021/04/26 03:07:37;;;;;;;2.70;2.20;;;9.10;93.20;;;;;;5095252;28;20185;-71
2021/04/26 03:10:10;;;;;;;4.30;2.70;;;9.10;93.20;;;;;;5100218;28;20180;-71
2021/04/26 03:12:40;;;;;;;3.43;2.50;;;9.00;93.40;;;;;;5099040;28;20217;-72
2021/04/26 03:15:13;;;;;;;5.33;3.37;;;8.90;93.50;;;;;;5100115;28;20607;-71
2021/04/26 03:17:40;;;;;;;4.47;2.83;;;9.00;93.60;;;;;;5099420;28;20166;-71
2021/04/26 03:20:11;;;;;;;4.60;2.87;;;8.90;93.30;;;;;;5099738;28;20736;-72
2021/04/26 03:22:41;;;;;;;4.17;2.60;;;8.90;93.90;;;;;;5098248;28;20290;-71
2021/04/26 03:25:07;;;;;;;4.47;2.80;;;8.70;93.60;;;;;;5100005;28;20174;-71
2021/04/26 03:27:34;;;;;;;3.97;2.80;;;8.70;94.30;;;;;;5096498;28;20167;-71
2021/04/26 03:30:01;;;;;;;6.83;3.97;;;8.70;94.30;;;;;;5094992;28;20182;-71
2021/04/26 03:32:28;;;;;;;4.70;2.93;;;8.70;93.80;;;;;;5098999;28;20194;-72
2021/04/26 03:34:54;;;;;;;7.73;2.87;;;8.60;94.10;;;;;;5098928;28;20570;-71
2021/04/26 03:37:21;;;;;;;4.03;3.30;;;8.50;94.10;;;;;;5093503;28;20173;-71
2021/04/26 03:39:48;;;;;;;3.17;2.57;;;8.50;94.30;;;;;;5095798;28;20245;-71
2021/04/26 03:42:15;;;;;;;5.13;3.07;;;8.50;94.40;;;;;;5095456;28;20196;-71
2021/04/26 03:44:49;;;;;;;4.73;3.20;;;8.40;94.80;;;;;;5094967;28;20173;-71
2021/04/26 03:47:16;;;;;;;5.47;3.47;;;8.40;95.30;;;;;;5094550;28;20194;-71
2021/04/26 03:49:42;;;;;;;4.63;2.80;;;8.40;94.80;;;;;;5094076;28;20680;-71
2021/04/26 03:52:09;;;;;;;4.33;3.03;;;8.40;95.50;;;;;;5093168;28;20242;-70
2021/04/26 03:54:35;;;;;;;4.90;3.33;;;8.30;95.00;;;;;;5076539;28;20713;-71
2021/04/26 03:57:02;;;;;;;7.27;3.30;;;8.30;95.60;;;;;;5094324;28;20161;-70
2021/04/26 03:59:28;;;;;;;6.83;3.07;;;8.40;95.40;;;;;;5093345;28;20256;-71
2021/04/26 04:01:54;;;;;;;4.50;3.47;;;8.30;95.40;;;;;;5085819;28;20346;-71
2021/04/26 04:04:20;;;;;;;5.90;3.57;;;8.20;95.30;;;;;;5086848;28;20185;-71
2021/04/26 04:06:45;;;;;;;3.57;3.27;;;8.20;95.60;;;;;;5081695;28;20267;-71
2021/04/26 04:09:11;;;;;;;3.47;3.17;;;8.20;95.40;;;;;;5092480;28;20161;-71
2021/04/26 04:11:37;;;;;;;4.90;3.63;;;8.20;95.70;;;;;;5093332;28;20280;-71
2021/04/26 04:14:03;;;;;;;4.97;3.70;;;8.30;95.60;;;;;;5093930;28;20167;-70
2021/04/26 04:16:30;;;;;;;4.47;3.60;;;8.20;95.70;;;;;;5092765;28;20171;-71
2021/04/26 04:18:56;;;;;;;5.33;3.63;;;8.10;96.50;;;;;;5084897;28;20169;-76
2021/04/26 04:21:23;;;;;;;4.80;3.20;;;8.10;95.80;;;;;;5093125;28;20292;-76
2021/04/26 04:23:48;;;;;;;4.60;3.70;;;8.00;96.00;;;;;;5091898;28;20165;-76
2021/04/26 04:26:14;;;;;;;5.13;3.93;;;8.10;96.30;;;;;;5093445;28;20162;-76
2021/04/26 04:28:40;;;;;;;3.97;3.57;;;8.10;96.10;;;;;;5092458;28;20628;-76
2021/04/26 04:31:06;;;;;;;8.50;4.20;;;8.10;96.30;;;;;;5093070;28;20215;-76
2021/04/26 04:33:32;;;;;;;5.43;3.70;;;8.20;96.10;;;;;;5093647;28;20194;-76
2021/04/26 04:35:58;;;;;;;4.60;3.60;;;8.10;96.30;;;;;;5093217;28;20586;-76
2021/04/26 04:38:27;;;;;;;6.40;4.37;;;8.00;96.30;;;;;;5091654;28;20170;-76
2021/04/26 04:40:55;;;;;;;4.57;4.03;;;7.90;96.50;;;;;;5092886;28;20190;-76
2021/04/26 04:43:22;;;;;;;5.77;4.57;;;7.90;96.50;;;;;;5094160;28;20175;-76
2021/04/26 04:45:48;;;;;;;6.00;4.07;;;7.80;96.70;;;;;;5093101;28;20187;-77
2021/04/26 04:48:15;;;;;;;7.67;4.20;;;7.70;96.70;;;;;;5093109;28;20533;-77
2021/04/26 04:50:40;;;;;;;4.63;4.20;;;7.70;97.00;;;;;;5091754;28;20176;-77
2021/04/26 04:53:06;;;;;;;5.77;4.50;;;7.80;96.80;;;;;;5091453;28;20184;-77
2021/04/26 04:55:32;;;;;;;6.50;4.57;;;7.80;97.00;;;;;;5093425;28;20180;-77
2021/04/26 04:57:58;;;;;;;6.40;4.80;;;7.70;97.00;;;;;;5093077;28;20733;-77
2021/04/26 05:00:23;;;;;;;6.27;4.23;;;7.70;97.30;;;;;;5092898;28;20238;-77
2021/04/26 05:02:49;;;;;;;5.00;4.50;;;7.70;97.20;;;;;;5091464;28;20194;-77
2021/04/26 05:05:15;;;;;;;8.13;4.83;;;7.70;97.70;;;;;;5091873;28;20182;-76
2021/04/26 05:07:41;;;;;;;6.30;4.37;;;7.70;97.30;;;;;;5092797;28;20178;-77
2021/04/26 05:10:07;;;;;;;6.87;4.67;;;7.70;97.50;;;;;;5092014;28;20659;-76
2021/04/26 05:12:33;;;;;;;7.37;4.60;;;7.70;97.50;;;;;;5095325;28;20200;-77
2021/04/26 05:15:00;;;;;;;10.57;5.97;;;7.80;97.40;;;;;;5097014;28;20168;-77
2021/04/26 05:17:26;;;;;;;8.13;4.50;;;7.80;97.40;;;;;;5097496;28;20230;-77
2021/04/26 05:19:53;;;;;;;9.60;4.87;;;7.70;97.40;;;;;;5100189;28;20255;-77
2021/04/26 05:22:19;;;;;;;9.60;4.93;;;7.70;97.70;;;;;;5099306;28;20224;-77
2021/04/26 05:24:45;;;;;;;5.57;4.87;;;7.70;97.50;;;;;;5096370;28;20203;-77
2021/04/26 05:27:11;;;;;;;6.20;4.57;;;7.60;97.50;;;;;;5096444;28;20175;-77
2021/04/26 05:29:37;;;;;;;8.17;5.20;;;7.60;97.70;;;;;;5106682;28;20233;-77
2021/04/26 05:32:04;;;;;;;5.47;4.97;;;7.40;97.80;;;;;;5100465;28;20204;-77
2021/04/26 05:34:30;;;;;;;6.23;5.00;;;7.40;98.00;;;;;;5096504;28;20697;-77
2021/04/26 05:36:55;;;;;;;6.70;5.30;;;7.40;98.00;;;;;;5096812;28;20173;-77
2021/04/26 05:39:21;;;;;;;7.33;5.10;;;7.50;98.30;;;;;;5095187;28;20169;-77
2021/04/26 05:41:47;;;;;;;7.87;5.30;;;7.50;97.90;;;;;;5096600;28;20200;-77
2021/04/26 05:44:13;;;;;;;11.07;5.10;;;7.70;98.00;;;;;;5096358;28;20641;-78
2021/04/26 05:46:40;;;;;;;6.93;5.30;;;7.60;97.90;;;;;;5096171;28;20221;-77
2021/04/26 05:49:05;;;;;;;6.70;5.13;;;7.50;97.80;;;;;;5094978;28;20172;-75
2021/04/26 05:51:32;;;;;;;6.03;5.27;;;7.60;97.80;;;;;;5096150;28;20557;-76
2021/04/26 05:53:58;;;;;;;7.20;5.23;;;7.50;98.20;;;;;;5096229;28;20169;-77
2021/04/26 05:56:24;;;;;;;5.43;4.73;;;7.50;97.80;;;;;;5096021;28;20235;-77
2021/04/26 05:58:50;;;;;;;6.67;4.73;;;7.50;97.90;;;;;;5094624;28;20178;-77
2021/04/26 06:01:16;;;;;;;10.07;5.00;;;7.60;98.00;;;;;;5095978;28;20216;-77
2021/04/26 06:03:41;;;;;;;7.17;4.70;;;7.50;98.00;;;;;;5095934;28;20208;-77
2021/04/26 06:06:08;;;;;;;5.57;4.83;;;7.60;97.90;;;;;;5096163;28;20177;-76
2021/04/26 06:08:34;;;;;;;9.87;5.27;;;7.60;98.00;;;;;;5092952;28;20187;-77
2021/04/26 06:11:00;;;;;;;6.50;5.13;;;7.70;98.20;;;;;;5094321;28;20205;-77
2021/04/26 06:13:26;;;;;;;8.00;5.30;;;7.70;97.60;;;;;;5102733;28;20192;-77
2021/04/26 06:15:52;;;;;;;8.30;5.30;;;7.70;98.10;;;;;;5095502;28;20169;-77
2021/04/26 06:18:21;;;;;;;8.73;5.13;;;7.80;97.90;;;;;;5095545;28;20203;-77
2021/04/26 06:20:49;;;;;;;7.47;5.13;;;7.90;97.90;;;;;;5094573;28;20654;-77
2021/04/26 06:23:15;;;;;;;7.47;5.33;;;8.00;97.70;;;;;;5081215;28;20197;-77
2021/04/26 06:25:42;;;;;;;7.40;5.20;;;8.00;97.50;;;;;;5094790;28;20201;-77
2021/04/26 06:28:12;;;;;;;6.07;4.77;;;8.00;97.70;;;;;;5095519;28;20180;-77
2021/04/26 06:30:41;;;;;;;7.17;5.27;;;7.90;97.60;;;;;;5093882;28;20177;-77
2021/04/26 06:33:09;;;;;;;8.20;5.00;;;7.80;97.60;;;;;;5094186;28;20188;-76
2021/04/26 06:35:35;;;;;;;6.43;5.17;;;7.70;97.70;;;;;;5093641;28;20308;-77
2021/04/26 06:38:01;;;;;;;6.27;4.97;;;7.70;98.00;;;;;;5093844;28;20168;-77
2021/04/26 06:40:27;;;;;;;5.37;4.83;;;7.80;98.00;;;;;;5094970;28;20165;-76
2021/04/26 06:42:53;;;;;;;5.73;5.03;;;7.90;98.10;;;;;;5082149;28;20165;-77
2021/04/26 06:45:21;;;;;;;10.20;4.80;;;7.80;97.80;;;;;;5077268;28;20191;-77
2021/04/26 06:47:48;;;;;;;5.63;4.83;;;7.90;97.80;;;;;;5094955;28;20266;-77
2021/04/26 06:50:14;;;;;;;10.80;5.40;;;7.90;97.60;;;;;;5094992;28;20257;-76
2021/04/26 06:52:40;;;;;;;7.37;5.40;;;7.90;97.60;;;;;;5093514;28;20335;-77
2021/04/26 06:55:07;;;;;;;8.33;5.27;;;7.90;97.70;;;;;;5094660;28;20177;-77
2021/04/26 06:57:32;;;;;;;6.23;4.90;;;8.10;97.70;;;;;;5093599;28;20181;-77
2021/04/26 06:59:58;;;;;;;8.13;5.50;;;8.20;97.30;;;;;;5094649;28;20197;-77
2021/04/26 07:02:24;;;;;;;5.40;4.77;;;8.10;97.40;;;;;;5085593;28;20230;-76
2021/04/26 07:04:50;;;;;;;11.93;5.47;;;8.20;97.40;;;;;;5089337;28;20172;-76
2021/04/26 07:07:15;;;;;;;6.27;5.50;;;8.30;97.50;;;;;;5076546;28;20185;-77
2021/04/26 07:09:41;;;;;;;9.47;5.83;;;8.30;97.20;;;;;;5093588;28;20186;-77
2021/04/26 07:12:08;;;;;;;6.30;4.67;;;8.50;97.20;;;;;;5094508;28;20223;-77
2021/04/26 07:14:33;;;;;;;10.40;5.30;;;8.50;97.10;;;;;;5094642;28;20213;-77
2021/04/26 07:16:59;;;;;;;5.30;4.80;;;8.60;97.10;;;;;;5088962;28;20170;-77
2021/04/26 07:19:24;;;;;;;7.93;6.13;;;8.60;96.90;;;;;;5085560;28;20176;-77
2021/04/26 07:21:50;;;;;;;5.60;4.83;;;8.60;97.20;;;;;;5092319;28;20575;-77
2021/04/26 07:24:16;;;;;;;8.67;4.93;;;8.70;96.60;;;;;;5092665;28;20178;-77
2021/04/26 07:26:42;;;;;;;8.07;4.93;;;8.70;96.90;;;;;;5093148;28;20248;-76
2021/04/26 07:29:08;;;;;;;8.23;5.00;;;8.70;96.80;;;;;;5078587;28;20608;-77
2021/04/26 07:31:34;;;;;;;7.00;5.40;;;8.70;96.80;;;;;;5081524;28;20198;-77
2021/04/26 07:34:00;;;;;;;7.33;5.13;;;8.80;96.70;;;;;;5092378;28;20220;-77
2021/04/26 07:36:25;;;;;;;6.87;5.80;;;8.80;97.10;;;;;;5084012;28;20182;-76
2021/04/26 07:38:51;;;;;;;6.23;5.13;;;8.90;96.80;;;;;;5092732;28;20175;-77
2021/04/26 07:41:17;;;;;;;6.07;5.47;;;8.90;96.80;;;;;;5093847;28;20197;-77
2021/04/26 07:43:43;;;;;;;7.30;5.80;;;8.90;96.40;;;;;;5092760;28;20301;-77
2021/04/26 07:46:09;;;;;;;12.27;5.40;;;8.90;96.80;;;;;;5077043;28;20184;-77
2021/04/26 07:48:37;;;;;;;12.37;5.47;;;8.90;96.50;;;;;;5080099;28;20540;-77
2021/04/26 07:51:03;;;;;;;8.00;5.07;;;9.00;96.40;;;;;;5089263;28;20711;-77
2021/04/26 07:53:30;;;;;;;6.80;4.70;;;9.00;96.70;;;;;;5085411;28;20285;-77
2021/04/26 07:55:56;;;;;;;6.63;5.20;;;9.10;96.30;;;;;;5074664;28;20566;-77
2021/04/26 07:58:22;;;;;;;9.20;5.37;;;9.10;96.00;;;;;;5091944;28;20176;-77
2021/04/26 08:00:48;;;;;;;8.73;5.13;;;9.10;96.20;;;;;;5092363;28;20197;-77
2021/04/26 08:03:15;;;;;;;6.50;5.30;;;9.20;96.30;;;;;;5090765;28;20188;-76
2021/04/26 08:05:42;;;;;;;8.43;5.23;;;9.20;96.30;;;;;;5075579;28;20535;-76
2021/04/26 08:08:08;;;;;;;6.87;5.13;;;9.20;96.30;;;;;;5075163;28;20172;-77
2021/04/26 08:10:33;;;;;;;6.77;5.17;;;9.30;96.30;;;;;;5093873;28;20544;-77
2021/04/26 08:12:59;;;;;;;8.87;5.33;;;9.40;96.30;;;;;;5093462;28;20251;-77
2021/04/26 08:15:25;;;;;;;7.20;5.93;;;9.40;96.20;;;;;;5092477;28;20178;-77
2021/04/26 08:17:51;;;;;;;5.57;4.87;;;9.30;96.10;;;;;;5098181;28;20166;-77
2021/04/26 08:20:16;;;;;;;10.13;5.13;;;9.40;96.20;;;;;;5092600;28;20193;-77
2021/04/26 08:22:42;;;;;;;10.47;5.57;;;9.50;96.60;;;;;;5093713;28;20697;-77
2021/04/26 08:25:08;;;;;;;7.77;5.70;;;9.70;96.40;;;;;;5093864;28;20258;-77
2021/04/26 08:27:35;;;;;;;7.90;5.60;;;9.80;95.80;;;;;;5093578;28;20176;-77
2021/04/26 08:33:28;;;;;;;10.07;4.70;;;10.10;95.70;;;;;;4972150;28;20215;-78
2021/04/26 08:39:42;;;;;;;;;;;;;;;;;;;;;
2021/04/26 08:42:08;;;;;;;7.07;5.27;;;10.40;95.30;;;;;;4897118;29;20232;-77
2021/04/26 08:44:43;;;;;;;9.27;5.37;;;10.60;94.80;;;;;;4908211;29;20202;-78
2021/04/26 08:47:22;;;;;;;6.80;6.10;;;10.60;94.80;;;;;;4940906;29;20687;-77
2021/04/26 08:49:47;;;;;;;6.60;5.30;;;10.70;95.00;;;;;;4962148;28;20203;-78
2021/04/26 08:52:16;;;;;;;6.67;4.83;;;11.00;94.90;;;;;;5017351;28;20168;-77
2021/04/26 08:54:48;;;;;;;7.47;4.63;;;11.10;94.40;;;;;;5018309;28;20266;-78
2021/04/26 08:57:18;;;;;;;6.20;5.10;;;11.30;93.50;;;;;;5017443;28;20420;-77
2021/04/26 08:59:47;;;;;;;5.60;5.00;;;11.40;93.40;;;;;;5016420;28;20488;-77
2021/04/26 09:02:13;;;;;;;6.57;4.80;;;11.40;94.90;;;;;;5017441;28;20274;-77
2021/04/26 09:05:03;;;;;;;11.37;5.10;;;11.60;94.10;;;;;;5017609;28;20206;-77
2021/04/26 09:08:03;;;;;;;;;;;;;;;;;;;;;
2021/04/26 09:11:12;;;;;;;9.70;4.90;;;11.80;94.50;;;;;;5020538;28;20274;-77
2021/04/26 09:14:40;;;;;;;;;;;;;;;;;;;;;
2021/04/26 09:21:10;;;;;;;6.80;4.53;;;12.00;93.20;;;;;;5018191;28;20264;-81
2021/04/26 09:27:19;;;;;;;5.60;4.10;;;12.60;93.00;;;;;;4892816;29;20230;-77
2021/04/26 09:29:48;;;;;;;6.37;4.27;;;12.90;92.60;;;;;;4915124;29;20242;-78
2021/04/26 09:32:19;;;;;;;4.97;3.87;;;13.00;91.30;;;;;;4941000;29;20595;-75
2021/04/26 09:34:48;;;;;;;5.67;4.03;;;13.10;91.20;;;;;;4959966;29;20693;-79
2021/04/26 09:37:20;;;;;;;5.40;4.10;;;13.30;90.50;;;;;;4972184;28;20207;-78
2021/04/26 09:40:15;;;;;;;7.47;4.23;;;13.30;91.20;;;;;;5019555;28;20198;-78
2021/04/26 09:42:56;;;;;;;4.80;3.93;;;13.30;90.30;;;;;;5021096;28;20230;-78
2021/04/26 09:49:24;;;;;;;4.97;4.47;;;13.70;91.10;;;;;;4957889;29;20287;-79
2021/04/26 09:52:31;;;;;;;6.53;4.30;;;13.80;89.90;;;;;;4887226;29;20776;-79
2021/04/26 09:55:31;;;;;;;6.03;4.57;;;13.70;89.80;;;;;;4884978;29;20198;-76
2021/04/26 09:58:13;;;;;;;7.27;4.43;;;13.80;90.30;;;;;;4960383;29;20181;-78
2021/04/26 10:00:47;;;;;;;5.27;3.90;;;14.00;89.40;;;;;;4959249;28;20253;-79
2021/04/26 10:03:13;;;;;;;4.97;3.57;;;14.10;89.20;;;;;;4960309;29;20224;-82
2021/04/26 10:05:51;;;;;;;8.40;4.17;;;14.10;88.80;;;;;;4969379;28;20192;-80
2021/04/26 10:08:21;;;;;;;6.47;4.93;;;14.30;89.50;;;;;;5019759;28;20179;-79
2021/04/26 10:10:47;;;;;;;6.07;4.03;;;14.40;88.80;;;;;;5021152;28;20195;-82
2021/04/26 10:13:13;;;;;;;9.07;4.47;;;14.50;89.70;;;;;;5021235;28;20219;-82
2021/04/26 10:15:39;;;;;;;5.60;4.00;;;14.60;88.50;;;;;;5020851;28;20189;-80
2021/04/26 10:18:09;;;;;;;5.23;3.97;;;14.60;89.20;;;;;;5019379;28;20198;-81
2021/04/26 10:20:41;;;;;;;6.07;4.50;;;14.70;88.70;;;;;;5020460;28;20210;-80
2021/04/26 10:23:40;;;;;;;4.50;3.63;;;14.80;87.20;;;;;;5006040;28;20223;-81
2021/04/26 10:26:07;;;;;;;5.00;4.20;;;14.80;87.70;;;;;;5012769;28;20256;-80
2021/04/26 10:28:35;;;;;;;6.03;3.70;;;14.80;87.10;;;;;;5020134;28;20175;-80
2021/04/26 10:31:10;;;;;;;8.50;4.23;;;14.90;87.60;;;;;;5018974;28;20274;-81
2021/04/26 10:33:58;;;;;;;5.47;3.73;;;15.00;85.80;;;;;;5019895;28;20179;-81
2021/04/26 10:36:42;;;;;;;5.60;4.20;;;14.90;86.60;;;;;;5010514;28;20285;-83
2021/04/26 10:39:10;;;;;;;4.77;4.00;;;15.00;87.30;;;;;;5019184;28;20183;-80
2021/04/26 10:42:00;;;;;;;5.50;4.07;;;15.00;86.10;;;;;;5018226;28;20188;-81
2021/04/26 10:44:41;;;;;;;8.30;4.67;;;15.10;85.50;;;;;;5010412;28;20195;-83
2021/04/26 10:47:23;;;;;;;6.33;4.47;;;15.20;84.80;;;;;;5019757;28;20187;-83
2021/04/26 10:50:02;;;;;;;8.50;4.50;;;15.30;84.60;;;;;;5020239;28;20199;-80
2021/04/26 10:52:28;;;;;;;4.90;4.20;;;15.30;85.90;;;;;;5018707;28;20182;-81
2021/04/26 10:54:54;;;;;;;7.50;4.30;;;15.30;86.30;;;;;;5017207;28;20198;-81
2021/04/26 10:57:42;;;;;;;5.40;4.23;;;15.50;86.20;;;;;;5018377;28;20634;-81
2021/04/26 11:00:23;;;;;;;8.67;4.43;;;15.60;83.60;;;;;;5016988;28;20214;-82
2021/04/26 11:03:18;;;;;;;5.43;4.13;;;15.50;85.10;;;;;;5018869;28;20203;-81
2021/04/26 11:05:45;;;;;;;5.00;4.47;;;15.70;84.80;;;;;;5010067;28;20183;-81
2021/04/26 11:13:55;;;;;;;6.47;5.20;;;16.00;85.80;;;;;;5013515;28;20732;-82
2021/04/26 11:16:22;;;;;;;4.43;4.00;;;16.10;84.60;;;;;;5022682;28;20210;-72
2021/04/26 11:18:54;;;;;;;5.37;4.60;;;16.00;85.40;;;;;;5014831;28;20512;-70
2021/04/26 11:21:48;;;;;;;9.63;4.83;;;16.00;86.30;;;;;;5022840;28;20261;-69
2021/04/26 11:24:26;;;;;;;8.90;5.07;;;16.10;86.00;;;;;;5017174;28;20174;-70
2021/04/26 11:27:15;;;;;;;6.77;4.10;;;16.30;87.70;;;;;;5014152;28;20186;-70
2021/04/26 11:29:41;;;;;;;4.53;4.00;;;16.40;84.40;;;;;;5014404;28;20341;-70
2021/04/26 11:32:08;;;;;;;12.07;4.90;;;16.30;85.00;;;;;;5014305;28;20175;-70
2021/04/26 11:34:59;;;;;;;6.60;4.03;;;16.20;83.90;;;;;;5008869;28;20234;-70
2021/04/26 11:37:30;;;;;;;19.53;5.03;;;16.20;85.60;;;;;;5013022;28;20521;-70
2021/04/26 11:39:56;;;;;;;6.60;4.00;;;16.40;85.20;;;;;;5013497;28;20194;-69
2021/04/26 11:42:24;;;;;;;7.27;4.47;;;16.40;83.90;;;;;;5013674;28;20237;-70
2021/04/26 11:44:53;;;;;;;4.83;4.33;;;16.40;84.90;;;;;;5014018;28;20171;-69
2021/04/26 11:47:20;;;;;;;9.20;4.50;;;16.20;83.20;;;;;;5010368;28;20194;-68
2021/04/26 11:49:51;;;;;;;7.43;4.80;;;16.10;83.00;;;;;;5002516;28;20286;-70
2021/04/26 11:52:27;;;;;;;6.00;4.43;;;16.10;84.00;;;;;;5013554;28;20258;-70
2021/04/26 11:55:04;;;;;;;6.23;4.73;;;16.30;87.00;;;;;;5012716;28;20237;-70
2021/04/26 11:57:38;;;;;;;4.67;4.20;;;16.50;83.80;;;;;;5013790;28;20245;-69
2021/04/26 12:00:08;;;;;;;6.00;4.20;;;16.50;82.10;;;;;;5010225;28;20681;-70
2021/04/26 12:02:40;;;;;;;6.23;4.73;;;16.50;82.30;;;;;;5010514;28;20560;-70
2021/04/26 12:05:08;;;;;;;5.10;4.60;;;16.40;82.60;;;;;;5013187;28;20193;-70
2021/04/26 12:07:35;;;;;;;4.73;4.03;;;16.70;82.20;;;;;;5013050;28;20244;-70
2021/04/26 12:10:04;;;;;;;5.33;4.30;;;16.80;85.40;;;;;;5013668;28;20233;-70
2021/04/26 12:12:31;;;;;;;6.10;4.27;;;16.90;81.80;;;;;;5012297;28;20187;-70
2021/04/26 12:14:59;;;;;;;5.03;4.20;;;16.90;80.60;;;;;;5007355;28;20176;-70
2021/04/26 12:17:30;;;;;;;4.90;4.13;;;16.90;80.60;;;;;;5005342;28;20187;-69
2021/04/26 12:19:57;;;;;;;4.50;3.73;;;17.00;79.10;;;;;;5012619;28;20206;-70
2021/04/26 12:22:25;;;;;;;4.87;4.27;;;17.00;79.30;;;;;;5008244;28;20204;-69
2021/04/26 12:24:53;;;;;;;5.00;4.20;;;16.70;80.50;;;;;;5009179;28;20186;-69
2021/04/26 12:27:24;;;;;;;4.53;4.13;;;16.70;80.20;;;;;;5012812;28;20186;-69
2021/04/26 12:29:50;;;;;;;6.30;4.10;;;16.60;76.10;;;;;;5013586;28;20214;-70
2021/04/26 12:32:18;;;;;;;6.83;4.83;;;16.80;76.60;;;;;;5013168;28;20557;-70
2021/04/26 12:35:00;;;;;;;5.67;4.10;;;16.70;80.90;;;;;;5013279;28;20611;-70
2021/04/26 12:37:32;;;;;;;4.30;3.83;;;16.80;80.10;;;;;;5013086;28;20171;-69
2021/04/26 12:40:24;;;;;;;7.30;4.33;;;16.80;77.10;;;;;;5002631;28;20261;-70
2021/04/26 12:43:04;;;;;;;6.43;3.87;;;16.70;77.50;;;;;;5003085;28;20677;-70
2021/04/26 12:45:35;;;;;;;4.70;3.93;;;16.70;76.40;;;;;;4997948;28;20171;-70
2021/04/26 12:48:18;;;;;;;5.20;4.30;;;16.80;76.70;;;;;;5010037;28;20200;-70
2021/04/26 12:50:49;;;;;;;6.70;4.73;;;16.80;78.30;;;;;;5013253;28;20202;-70
2021/04/26 12:53:33;;;;;;;8.00;5.00;;;17.10;77.40;;;;;;5013357;28;20261;-70
2021/04/26 12:56:07;;;;;;;7.53;3.97;;;16.90;78.80;;;;;;5013399;28;20262;-70
2021/04/26 12:58:44;;;;;;;5.37;4.00;;;17.00;76.90;;;;;;4998631;28;20675;-70
2021/04/26 13:01:21;;;;;;;7.37;4.30;;;16.90;76.50;;;;;;5000883;28;20739;-70
2021/04/26 13:03:52;;;;;;;5.60;4.50;;;16.80;77.30;;;;;;5010649;28;20191;-70
2021/04/26 13:06:47;;;;;;;6.70;4.50;;;16.80;78.90;;;;;;5013111;28;20175;-70
2021/04/26 13:09:14;;;;;;;7.80;4.20;;;17.10;81.60;;;;;;5008180;28;20171;-70
2021/04/26 13:11:45;;;;;;;5.00;4.50;;;17.20;78.10;;;;;;5012707;28;20203;-70
2021/04/26 13:14:21;;;;;;;4.87;3.67;;;16.90;75.90;;;;;;5013015;28;20182;-70
2021/04/26 13:17:02;;;;;;;7.67;4.20;;;17.00;75.90;;;;;;5005356;28;20175;-69
2021/04/26 13:19:29;;;;;;;6.73;3.57;;;17.00;78.10;;;;;;4998622;28;20205;-70
2021/04/26 13:21:55;;;;;;;4.40;3.73;;;17.30;78.40;;;;;;5005559;28;20179;-69
2021/04/26 13:24:27;;;;;;;6.57;3.83;;;17.50;74.40;;;;;;5008944;28;20175;-70
2021/04/26 13:27:03;;;;;;;6.37;4.10;;;17.20;75.50;;;;;;5012152;28;20176;-69
2021/04/26 13:29:30;;;;;;;4.50;3.90;;;17.30;76.00;;;;;;5012308;28;20206;-70
2021/04/26 13:32:01;;;;;;;5.50;4.20;;;17.10;76.50;;;;;;5002146;28;20217;-70
2021/04/26 13:34:27;;;;;;;8.10;4.07;;;17.20;76.90;;;;;;5020694;28;20171;-70
2021/04/26 13:36:55;;;;;;;5.77;4.90;;;17.20;75.90;;;;;;5018005;28;20575;-70